sensor_id;sensor_type;location;lat;lon;timestamp;pressure;altitude;pressure_sealevel;temperature;humidity
21944;BME280;11136;48.778;9.126;2024-03-22T00:02:16;98054.50;;;11.44;59.35
21944;BME280;11136;48.778;9.126;2024-03-22T00:04:41;98158.66;;;12.08;59.18
21944;BME280;11136;48.778;9.126;2024-03-22T00:07:06;98154.34;;;12.08;59.00
21944;BME280;11136;48.778;9.126;2024-03-22T00:09:32;98077.41;;;11.32;59.06
21944;BME280;11136;48.778;9.126;2024-03-22T00:11:57;98128.28;;;12.00;58.65
21944;BME280;11136;48.778;9.126;2024-03-22T00:14:23;97943.00;;;10.75;58.96
21944;BME280;11136;48.778;9.126;2024-03-22T00:16:48;98175.91;;;12.34;58.93
21944;BME280;11136;48.778;9.126;2024-03-22T00:19:13;97972.59;;;10.81;58.52
21944;BME280;11136;48.778;9.126;2024-03-22T00:21:39;98109.81;;;11.79;58.88
21944;BME280;11136;48.778;9.126;2024-03-22T00:24:04;97981.56;;;10.73;59.09
21944;BME280;11136;48.778;9.126;2024-03-22T00:26:29;97956.69;;;10.60;58.99
21944;BME280;11136;48.778;9.126;2024-03-22T00:28:55;98051.38;;;11.39;59.23
21944;BME280;11136;48.778;9.126;2024-03-22T00:31:22;98056.13;;;11.45;59.22
21944;BME280;11136;48.778;9.126;2024-03-22T00:33:48;98012.78;;;10.96;59.16
21944;BME280;11136;48.778;9.126;2024-03-22T00:36:13;97963.97;;;10.82;59.15
21944;BME280;11136;48.778;9.126;2024-03-22T00:38:39;98143.66;;;11.86;59.08
21944;BME280;11136;48.778;9.126;2024-03-22T00:41:04;98161.00;;;11.96;59.33
21944;BME280;11136;48.778;9.126;2024-03-22T00:43:29;98025.34;;;10.39;59.59
21944;BME280;11136;48.778;9.126;2024-03-22T00:45:55;98101.16;;;11.36;59.35
21944;BME280;11136;48.778;9.126;2024-03-22T00:48:20;98123.53;;;11.34;59.56
21944;BME280;11136;48.778;9.126;2024-03-22T00:50:46;98147.25;;;11.83;59.77
21944;BME280;11136;48.778;9.126;2024-03-22T00:53:11;97905.22;;;10.33;59.64
21944;BME280;11136;48.778;9.126;2024-03-22T00:55:38;98020.56;;;10.94;59.69
21944;BME280;11136;48.778;9.126;2024-03-22T00:58:03;98153.78;;;11.73;59.78
21944;BME280;11136;48.778;9.126;2024-03-22T01:00:28;98016.59;;;10.89;59.59
21944;BME280;11136;48.778;9.126;2024-03-22T01:02:54;98151.50;;;11.69;59.79
21944;BME280;11136;48.778;9.126;2024-03-22T01:05:19;97947.59;;;10.24;59.71
21944;BME280;11136;48.778;9.126;2024-03-22T01:07:44;98118.28;;;11.65;59.83
21944;BME280;11136;48.778;9.126;2024-03-22T01:10:11;97871.53;;;9.93;59.64
21944;BME280;11136;48.778;9.126;2024-03-22T01:12:37;98111.44;;;11.50;59.87
21944;BME280;11136;48.778;9.126;2024-03-22T01:15:08;98055.13;;;11.03;60.23
21944;BME280;11136;48.778;9.126;2024-03-22T01:17:34;97972.84;;;10.46;60.04
21944;BME280;11136;48.778;9.126;2024-03-22T01:19:59;97966.25;;;10.42;60.34
21944;BME280;11136;48.778;9.126;2024-03-22T01:22:25;98059.94;;;11.09;60.36
21944;BME280;11136;48.778;9.126;2024-03-22T01:24:50;97866.41;;;9.93;59.83
21944;BME280;11136;48.778;9.126;2024-03-22T01:27:16;97994.84;;;10.50;60.04
21944;BME280;11136;48.778;9.126;2024-03-22T01:29:41;97886.75;;;9.96;60.41
21944;BME280;11136;48.778;9.126;2024-03-22T01:32:09;98095.16;;;11.21;60.32
21944;BME280;11136;48.778;9.126;2024-03-22T01:34:34;97953.53;;;10.25;60.42
21944;BME280;11136;48.778;9.126;2024-03-22T01:37:00;97790.72;;;9.26;59.80
21944;BME280;11136;48.778;9.126;2024-03-22T01:39:25;97995.09;;;10.46;60.30
21944;BME280;11136;48.778;9.126;2024-03-22T01:41:51;97840.34;;;9.39;60.20
21944;BME280;11136;48.778;9.126;2024-03-22T01:44:17;97888.25;;;9.85;60.04
21944;BME280;11136;48.778;9.126;2024-03-22T01:46:44;97843.31;;;9.47;60.22
21944;BME280;11136;48.778;9.126;2024-03-22T01:49:10;98104.28;;;11.11;60.28
21944;BME280;11136;48.778;9.126;2024-03-22T01:51:36;98001.22;;;10.27;60.30
21944;BME280;11136;48.778;9.126;2024-03-22T01:54:02;98013.53;;;10.52;60.44
21944;BME280;11136;48.778;9.126;2024-03-22T01:56:28;98107.09;;;11.07;60.02
21944;BME280;11136;48.778;9.126;2024-03-22T01:58:55;97997.09;;;10.25;60.12
21944;BME280;11136;48.778;9.126;2024-03-22T02:01:21;97855.13;;;9.50;60.17
21944;BME280;11136;48.778;9.126;2024-03-22T02:03:46;98087.25;;;10.94;60.10
21944;BME280;11136;48.778;9.126;2024-03-22T02:06:11;97889.50;;;9.62;60.37
21944;BME280;11136;48.778;9.126;2024-03-22T02:08:37;98080.75;;;10.89;60.27
21944;BME280;11136;48.778;9.126;2024-03-22T02:11:03;97983.19;;;10.29;60.21
21944;BME280;11136;48.778;9.126;2024-03-22T02:13:28;97885.59;;;9.70;60.48
21944;BME280;11136;48.778;9.126;2024-03-22T02:15:53;97744.44;;;8.83;60.40
21944;BME280;11136;48.778;9.126;2024-03-22T02:18:19;97267.44;;;5.83;59.93
21944;BME280;11136;48.778;9.126;2024-03-22T02:20:44;97704.66;;;8.46;60.64
21944;BME280;11136;48.778;9.126;2024-03-22T02:23:09;98042.81;;;10.48;60.71
21944;BME280;11136;48.778;9.126;2024-03-22T02:25:35;98068.47;;;10.64;60.53
21944;BME280;11136;48.778;9.126;2024-03-22T02:28:00;98014.19;;;10.08;61.08
21944;BME280;11136;48.778;9.126;2024-03-22T02:30:25;98084.22;;;10.40;61.28
21944;BME280;11136;48.778;9.126;2024-03-22T02:32:51;97844.09;;;9.01;61.01
21944;BME280;11136;48.778;9.126;2024-03-22T02:35:16;98004.56;;;9.80;60.89
21944;BME280;11136;48.778;9.126;2024-03-22T02:37:41;97815.13;;;8.84;61.05
21944;BME280;11136;48.778;9.126;2024-03-22T02:40:07;98081.84;;;10.37;61.77
21944;BME280;11136;48.778;9.126;2024-03-22T02:42:32;98057.19;;;10.35;61.13
21944;BME280;11136;48.778;9.126;2024-03-22T02:44:58;98046.28;;;10.31;61.52
21944;BME280;11136;48.778;9.126;2024-03-22T02:47:23;97891.75;;;9.19;60.88
21944;BME280;11136;48.778;9.126;2024-03-22T02:49:48;97756.16;;;8.54;61.49
21944;BME280;11136;48.778;9.126;2024-03-22T02:52:14;98045.47;;;10.31;61.13
21944;BME280;11136;48.778;9.126;2024-03-22T02:54:39;98006.09;;;10.00;61.46
21944;BME280;11136;48.778;9.126;2024-03-22T02:57:05;97957.38;;;9.69;61.29
21944;BME280;11136;48.778;9.126;2024-03-22T02:59:30;97829.16;;;8.93;61.38
21944;BME280;11136;48.778;9.126;2024-03-22T03:01:56;98029.00;;;10.35;61.78
21944;BME280;11136;48.778;9.126;2024-03-22T03:04:23;97807.78;;;8.94;61.13
21944;BME280;11136;48.778;9.126;2024-03-22T03:06:48;98047.50;;;10.40;61.40
21944;BME280;11136;48.778;9.126;2024-03-22T03:09:15;98027.78;;;10.42;61.21
21944;BME280;11136;48.778;9.126;2024-03-22T03:11:41;98056.88;;;10.41;60.90
21944;BME280;11136;48.778;9.126;2024-03-22T03:14:06;98031.25;;;10.41;61.44
21944;BME280;11136;48.778;9.126;2024-03-22T03:16:32;97936.09;;;9.84;61.49
21944;BME280;11136;48.778;9.126;2024-03-22T03:18:57;97983.75;;;10.18;61.50
21944;BME280;11136;48.778;9.126;2024-03-22T03:21:22;97834.22;;;9.26;61.09
21944;BME280;11136;48.778;9.126;2024-03-22T03:23:48;97698.34;;;8.36;61.20
21944;BME280;11136;48.778;9.126;2024-03-22T03:26:13;97750.03;;;8.74;61.73
21944;BME280;11136;48.778;9.126;2024-03-22T03:28:38;97706.47;;;8.27;61.41
21944;BME280;11136;48.778;9.126;2024-03-22T03:31:04;98017.00;;;10.35;62.24
21944;BME280;11136;48.778;9.126;2024-03-22T03:33:29;97748.53;;;8.70;62.48
21944;BME280;11136;48.778;9.126;2024-03-22T03:35:55;98009.97;;;10.39;62.61
21944;BME280;11136;48.778;9.126;2024-03-22T03:38:20;97856.22;;;9.30;62.63
21944;BME280;11136;48.778;9.126;2024-03-22T03:40:46;98023.78;;;10.36;62.59
21944;BME280;11136;48.778;9.126;2024-03-22T03:43:12;98030.91;;;10.47;62.84
21944;BME280;11136;48.778;9.126;2024-03-22T03:45:37;97782.06;;;9.13;62.86
21944;BME280;11136;48.778;9.126;2024-03-22T03:48:03;97912.22;;;9.99;63.56
21944;BME280;11136;48.778;9.126;2024-03-22T03:50:28;97931.34;;;9.92;63.17
21944;BME280;11136;48.778;9.126;2024-03-22T03:52:53;97978.91;;;10.29;63.34
21944;BME280;11136;48.778;9.126;2024-03-22T03:55:19;97764.59;;;9.05;63.68
21944;BME280;11136;48.778;9.126;2024-03-22T03:57:44;97752.38;;;9.10;63.37
21944;BME280;11136;48.778;9.126;2024-03-22T04:00:10;97818.56;;;9.32;63.74
21944;BME280;11136;48.778;9.126;2024-03-22T04:02:35;97963.88;;;10.23;63.46
21944;BME280;11136;48.778;9.126;2024-03-22T04:05:00;97826.22;;;9.64;63.49
21944;BME280;11136;48.778;9.126;2024-03-22T04:07:26;97793.72;;;9.34;63.46
21944;BME280;11136;48.778;9.126;2024-03-22T04:09:51;97938.41;;;10.04;63.87
21944;BME280;11136;48.778;9.126;2024-03-22T04:12:16;98008.41;;;10.52;63.59
21944;BME280;11136;48.778;9.126;2024-03-22T04:14:42;97701.06;;;8.66;63.75
21944;BME280;11136;48.778;9.126;2024-03-22T04:17:07;97781.09;;;9.15;63.60
21944;BME280;11136;48.778;9.126;2024-03-22T04:19:32;97879.97;;;9.95;63.44
21944;BME280;11136;48.778;9.126;2024-03-22T04:21:58;97709.09;;;8.25;62.68
21944;BME280;11136;48.778;9.126;2024-03-22T04:24:23;97223.97;;;5.88;63.23
21944;BME280;11136;48.778;9.126;2024-03-22T04:26:48;97794.47;;;9.36;63.07
21944;BME280;11136;48.778;9.126;2024-03-22T04:29:14;97905.59;;;10.27;62.88
21944;BME280;11136;48.778;9.126;2024-03-22T04:31:39;97806.75;;;9.61;63.00
21944;BME280;11136;48.778;9.126;2024-03-22T04:34:05;97992.09;;;10.83;63.18
21944;BME280;11136;48.778;9.126;2024-03-22T04:36:33;97940.09;;;10.51;62.93
21944;BME280;11136;48.778;9.126;2024-03-22T04:38:59;97753.50;;;9.36;63.01
21944;BME280;11136;48.778;9.126;2024-03-22T04:41:24;97929.03;;;10.35;63.16
21944;BME280;11136;48.778;9.126;2024-03-22T04:43:50;98012.63;;;10.83;63.29
21944;BME280;11136;48.778;9.126;2024-03-22T04:46:15;97793.78;;;9.48;63.40
21944;BME280;11136;48.778;9.126;2024-03-22T04:48:40;98004.69;;;10.88;63.22
21944;BME280;11136;48.778;9.126;2024-03-22T04:51:06;97888.38;;;10.13;63.47
21944;BME280;11136;48.778;9.126;2024-03-22T04:53:31;98006.72;;;10.97;63.27
21944;BME280;11136;48.778;9.126;2024-03-22T04:55:57;97856.13;;;9.79;63.11
21944;BME280;11136;48.778;9.126;2024-03-22T04:58:22;97961.22;;;10.70;63.20
21944;BME280;11136;48.778;9.126;2024-03-22T05:00:48;98008.84;;;11.04;63.11
21944;BME280;11136;48.778;9.126;2024-03-22T05:03:14;98042.03;;;11.08;63.05
21944;BME280;11136;48.778;9.126;2024-03-22T05:05:41;97952.25;;;10.78;62.93
21944;BME280;11136;48.778;9.126;2024-03-22T05:08:07;97895.97;;;10.30;63.56
21944;BME280;11136;48.778;9.126;2024-03-22T05:10:33;97872.69;;;10.03;62.94
21944;BME280;11136;48.778;9.126;2024-03-22T05:12:59;97937.44;;;10.53;63.13
21944;BME280;11136;48.778;9.126;2024-03-22T05:15:25;97820.16;;;9.96;63.56
21944;BME280;11136;48.778;9.126;2024-03-22T05:17:56;98001.97;;;11.05;63.30
21944;BME280;11136;48.778;9.126;2024-03-22T05:20:21;97716.69;;;9.23;63.07
21944;BME280;11136;48.778;9.126;2024-03-22T05:22:47;97850.84;;;10.12;63.33
21944;BME280;11136;48.778;9.126;2024-03-22T05:25:13;98010.59;;;11.04;63.38
21944;BME280;11136;48.778;9.126;2024-03-22T05:27:40;97940.53;;;10.73;63.10
21944;BME280;11136;48.778;9.126;2024-03-22T05:30:07;97996.00;;;11.04;63.44
21944;BME280;11136;48.778;9.126;2024-03-22T05:32:33;97815.53;;;9.87;63.44
21944;BME280;11136;48.778;9.126;2024-03-22T05:34:58;97943.00;;;10.75;63.57
21944;BME280;11136;48.778;9.126;2024-03-22T05:37:23;97633.00;;;8.79;63.53
21944;BME280;11136;48.778;9.126;2024-03-22T05:39:50;97648.03;;;8.85;63.72
21944;BME280;11136;48.778;9.126;2024-03-22T05:42:15;97978.28;;;10.40;63.41
21944;BME280;11136;48.778;9.126;2024-03-22T05:44:40;97982.97;;;10.63;63.93
21944;BME280;11136;48.778;9.126;2024-03-22T05:47:06;97979.16;;;10.70;63.49
21944;BME280;11136;48.778;9.126;2024-03-22T05:49:31;97919.53;;;10.67;63.70
21944;BME280;11136;48.778;9.126;2024-03-22T05:51:58;97961.28;;;10.99;63.31
21944;BME280;11136;48.778;9.126;2024-03-22T05:54:25;97867.69;;;10.32;63.33
21944;BME280;11136;48.778;9.126;2024-03-22T05:56:50;97907.72;;;10.64;63.33
21944;BME280;11136;48.778;9.126;2024-03-22T05:59:16;97780.94;;;9.80;63.68
21944;BME280;11136;48.778;9.126;2024-03-22T06:01:41;97908.81;;;10.74;63.90
21944;BME280;11136;48.778;9.126;2024-03-22T06:04:07;97943.84;;;11.04;63.79
21944;BME280;11136;48.778;9.126;2024-03-22T06:06:34;97826.88;;;10.29;63.57
21944;BME280;11136;48.778;9.126;2024-03-22T06:09:00;97774.75;;;9.84;63.51
21944;BME280;11136;48.778;9.126;2024-03-22T06:11:28;97747.31;;;9.86;63.79
21944;BME280;11136;48.778;9.126;2024-03-22T06:13:54;97807.56;;;10.23;63.41
21944;BME280;11136;48.778;9.126;2024-03-22T06:16:19;97684.81;;;9.44;63.47
21944;BME280;11136;48.778;9.126;2024-03-22T06:18:44;97302.63;;;6.44;63.32
21944;BME280;11136;48.778;9.126;2024-03-22T06:21:10;97699.13;;;9.63;63.45
21944;BME280;11136;48.778;9.126;2024-03-22T06:23:35;97722.69;;;9.83;63.32
21944;BME280;11136;48.778;9.126;2024-03-22T06:26:00;97732.50;;;9.91;63.47
21944;BME280;11136;48.778;9.126;2024-03-22T06:28:28;97876.44;;;10.88;64.01
21944;BME280;11136;48.778;9.126;2024-03-22T06:30:53;97743.41;;;10.09;63.47
21944;BME280;11136;48.778;9.126;2024-03-22T06:33:19;97893.19;;;11.08;63.57
21944;BME280;11136;48.778;9.126;2024-03-22T06:35:45;97659.47;;;9.70;63.38
21944;BME280;11136;48.778;9.126;2024-03-22T06:38:11;97946.25;;;11.50;63.67
21944;BME280;11136;48.778;9.126;2024-03-22T06:40:36;97785.44;;;10.51;63.19
21944;BME280;11136;48.778;9.126;2024-03-22T06:43:02;97654.47;;;9.82;63.09
21944;BME280;11136;48.778;9.126;2024-03-22T06:45:27;97905.28;;;11.48;63.47
21944;BME280;11136;48.778;9.126;2024-03-22T06:47:53;97678.75;;;10.20;63.37
21944;BME280;11136;48.778;9.126;2024-03-22T06:50:18;97929.09;;;11.93;63.22
21944;BME280;11136;48.778;9.126;2024-03-22T06:52:44;97879.81;;;11.72;62.90
21944;BME280;11136;48.778;9.126;2024-03-22T06:55:09;97926.28;;;12.10;62.67
21944;BME280;11136;48.778;9.126;2024-03-22T06:57:37;97639.56;;;10.18;62.95
21944;BME280;11136;48.778;9.126;2024-03-22T07:00:02;97650.03;;;10.29;62.92
21944;BME280;11136;48.778;9.126;2024-03-22T07:02:28;97967.09;;;12.29;62.56
21944;BME280;11136;48.778;9.126;2024-03-22T07:04:53;97565.28;;;10.03;62.62
21944;BME280;11136;48.778;9.126;2024-03-22T07:07:19;97765.47;;;11.40;62.73
21944;BME280;11136;48.778;9.126;2024-03-22T07:09:44;97760.31;;;11.40;62.51
21944;BME280;11136;48.778;9.126;2024-03-22T07:12:11;97763.47;;;11.57;62.22
21944;BME280;11136;48.778;9.126;2024-03-22T07:14:36;97942.47;;;12.65;61.35
21944;BME280;11136;48.778;9.126;2024-03-22T07:17:02;97562.06;;;10.42;61.08
21944;BME280;11136;48.778;9.126;2024-03-22T07:19:28;97777.34;;;11.82;60.36
21944;BME280;11136;48.778;9.126;2024-03-22T07:21:54;97920.53;;;12.99;59.84
21944;BME280;11136;48.778;9.126;2024-03-22T07:24:19;97771.66;;;12.04;59.49
21944;BME280;11136;48.778;9.126;2024-03-22T07:26:45;97863.88;;;12.73;59.09
21944;BME280;11136;48.778;9.126;2024-03-22T07:29:11;97782.97;;;12.39;58.75
21944;BME280;11136;48.778;9.126;2024-03-22T07:31:36;97769.19;;;12.40;58.60
21944;BME280;11136;48.778;9.126;2024-03-22T07:34:02;97720.34;;;12.27;58.65
21944;BME280;11136;48.778;9.126;2024-03-22T07:36:27;97882.19;;;13.45;58.12
21944;BME280;11136;48.778;9.126;2024-03-22T07:38:52;97774.50;;;13.01;57.67
21944;BME280;11136;48.778;9.126;2024-03-22T07:41:18;97733.28;;;13.13;56.84
21944;BME280;11136;48.778;9.126;2024-03-22T07:43:43;97833.00;;;13.85;56.57
21944;BME280;11136;48.778;9.126;2024-03-22T07:46:09;97500.22;;;12.14;55.91
21944;BME280;11136;48.778;9.126;2024-03-22T07:48:34;97771.28;;;13.94;55.56
21944;BME280;11136;48.778;9.126;2024-03-22T07:51:00;97828.25;;;14.61;55.24
21944;BME280;11136;48.778;9.126;2024-03-22T07:53:26;97798.28;;;14.48;54.64
21944;BME280;11136;48.778;9.126;2024-03-22T07:55:51;97894.38;;;15.31;54.41
21944;BME280;11136;48.778;9.126;2024-03-22T07:58:17;97764.75;;;14.48;53.79
21944;BME280;11136;48.778;9.126;2024-03-22T08:00:43;97690.13;;;14.11;53.55
21944;BME280;11136;48.778;9.126;2024-03-22T08:03:14;97676.06;;;14.04;53.06
21944;BME280;11136;48.778;9.126;2024-03-22T08:05:39;97768.75;;;14.63;52.15
21944;BME280;11136;48.778;9.126;2024-03-22T08:08:05;97908.22;;;15.52;52.46
21944;BME280;11136;48.778;9.126;2024-03-22T08:10:30;97902.25;;;15.52;51.84
21944;BME280;11136;48.778;9.126;2024-03-22T08:12:56;97824.16;;;15.04;51.99
21944;BME280;11136;48.778;9.126;2024-03-22T08:15:21;97705.47;;;13.66;51.76
21944;BME280;11136;48.778;9.126;2024-03-22T08:17:46;97696.78;;;14.25;51.48
21944;BME280;11136;48.778;9.126;2024-03-22T08:20:12;97712.16;;;14.15;51.31
21944;BME280;11136;48.778;9.126;2024-03-22T08:22:37;97885.22;;;15.60;51.55
21944;BME280;11136;48.778;9.126;2024-03-22T08:25:03;97728.41;;;14.73;51.11
21944;BME280;11136;48.778;9.126;2024-03-22T08:27:29;97763.25;;;15.01;50.56
21944;BME280;11136;48.778;9.126;2024-03-22T08:29:55;97643.72;;;14.33;50.68
21944;BME280;11136;48.778;9.126;2024-03-22T08:32:20;97848.63;;;15.87;50.57
21944;BME280;11136;48.778;9.126;2024-03-22T08:34:46;97535.63;;;14.19;50.49
21944;BME280;11136;48.778;9.126;2024-03-22T08:37:11;97618.31;;;14.94;49.81
21944;BME280;11136;48.778;9.126;2024-03-22T08:39:36;97670.47;;;15.20;49.92
21944;BME280;11136;48.778;9.126;2024-03-22T08:42:02;97875.41;;;16.92;49.27
21944;BME280;11136;48.778;9.126;2024-03-22T08:44:30;97657.94;;;15.69;49.08
21944;BME280;11136;48.778;9.126;2024-03-22T08:46:55;97825.47;;;16.80;48.88
21944;BME280;11136;48.778;9.126;2024-03-22T08:49:20;97779.31;;;16.44;48.23
21944;BME280;11136;48.778;9.126;2024-03-22T08:51:46;97730.53;;;16.18;48.22
21944;BME280;11136;48.778;9.126;2024-03-22T08:54:13;97594.25;;;15.47;48.07
21944;BME280;11136;48.778;9.126;2024-03-22T08:56:38;97815.72;;;16.94;47.78
21944;BME280;11136;48.778;9.126;2024-03-22T08:59:04;97659.75;;;15.78;47.92
21944;BME280;11136;48.778;9.126;2024-03-22T09:01:29;97762.69;;;16.67;47.91
21944;BME280;11136;48.778;9.126;2024-03-22T09:03:54;97738.28;;;16.39;47.35
21944;BME280;11136;48.778;9.126;2024-03-22T09:06:20;97850.50;;;17.22;47.51
21944;BME280;11136;48.778;9.126;2024-03-22T09:08:45;97807.44;;;17.00;47.26
21944;BME280;11136;48.778;9.126;2024-03-22T09:11:11;97753.72;;;16.71;47.12
21944;BME280;11136;48.778;9.126;2024-03-22T09:13:36;97797.13;;;16.79;46.09
21944;BME280;11136;48.778;9.126;2024-03-22T09:16:02;97612.59;;;15.85;45.41
21944;BME280;11136;48.778;9.126;2024-03-22T09:18:27;97840.97;;;17.32;46.00
21944;BME280;11136;48.778;9.126;2024-03-22T09:20:53;97830.88;;;17.38;46.25
21944;BME280;11136;48.778;9.126;2024-03-22T09:23:19;97691.38;;;16.63;46.52
21944;BME280;11136;48.778;9.126;2024-03-22T09:25:45;97739.28;;;17.09;45.70
21944;BME280;11136;48.778;9.126;2024-03-22T09:28:11;97792.16;;;17.56;44.83
21944;BME280;11136;48.778;9.126;2024-03-22T09:30:40;97709.13;;;17.08;43.63
21944;BME280;11136;48.778;9.126;2024-03-22T09:33:06;97767.06;;;17.57;43.19
21944;BME280;11136;48.778;9.126;2024-03-22T09:35:35;97770.50;;;17.67;41.76
21944;BME280;11136;48.778;9.126;2024-03-22T09:38:01;97531.25;;;16.39;42.17
21944;BME280;11136;48.778;9.126;2024-03-22T09:40:27;97731.97;;;18.20;42.47
21944;BME280;11136;48.778;9.126;2024-03-22T09:42:53;97803.63;;;19.07;42.02
21944;BME280;11136;48.778;9.126;2024-03-22T09:45:20;97491.94;;;17.40;41.35
21944;BME280;11136;48.778;9.126;2024-03-22T09:47:50;97851.06;;;19.46;39.47
21944;BME280;11136;48.778;9.126;2024-03-22T09:50:15;97302.31;;;16.14;39.55
21944;BME280;11136;48.778;9.126;2024-03-22T09:52:41;97502.41;;;17.02;40.32
21944;BME280;11136;48.778;9.126;2024-03-22T09:55:08;97723.38;;;18.66;39.62
21944;BME280;11136;48.778;9.126;2024-03-22T09:57:38;97787.50;;;19.31;39.99
21944;BME280;11136;48.778;9.126;2024-03-22T10:00:08;97780.75;;;19.65;40.18
21944;BME280;11136;48.778;9.126;2024-03-22T10:02:34;97586.75;;;18.74;39.77
21944;BME280;11136;48.778;9.126;2024-03-22T10:05:00;97772.09;;;20.18;39.84
21944;BME280;11136;48.778;9.126;2024-03-22T10:07:28;97732.25;;;20.00;39.63
21944;BME280;11136;48.778;9.126;2024-03-22T10:09:57;97725.03;;;20.37;39.20
21944;BME280;11136;48.778;9.126;2024-03-22T10:12:23;97654.22;;;19.64;38.74
21944;BME280;11136;48.778;9.126;2024-03-22T10:14:52;97658.38;;;20.01;38.46
21944;BME280;11136;48.778;9.126;2024-03-22T10:17:18;97675.38;;;20.13;37.19
21944;BME280;11136;48.778;9.126;2024-03-22T10:19:43;97308.44;;;17.71;37.14
21944;BME280;11136;48.778;9.126;2024-03-22T10:22:08;97712.25;;;20.26;37.20
21944;BME280;11136;48.778;9.126;2024-03-22T10:24:34;97168.22;;;16.74;37.48
21944;BME280;11136;48.778;9.126;2024-03-22T10:26:59;97750.69;;;20.50;37.63
21944;BME280;11136;48.778;9.126;2024-03-22T10:29:25;97645.19;;;19.94;37.36
21944;BME280;11136;48.778;9.126;2024-03-22T10:31:54;97726.66;;;20.64;37.21
21944;BME280;11136;48.778;9.126;2024-03-22T10:34:21;97731.75;;;20.74;37.52
21944;BME280;11136;48.778;9.126;2024-03-22T10:36:47;97641.13;;;20.00;37.55
21944;BME280;11136;48.778;9.126;2024-03-22T10:39:16;97686.22;;;20.26;37.75
21944;BME280;11136;48.778;9.126;2024-03-22T10:41:45;97623.91;;;19.55;38.11
21944;BME280;11136;48.778;9.126;2024-03-22T10:44:11;97542.09;;;19.32;38.33
21944;BME280;11136;48.778;9.126;2024-03-22T10:46:37;97451.31;;;19.12;38.42
21944;BME280;11136;48.778;9.126;2024-03-22T10:49:04;97517.72;;;19.76;38.43
21944;BME280;11136;48.778;9.126;2024-03-22T10:51:32;97686.72;;;20.98;38.16
21944;BME280;11136;48.778;9.126;2024-03-22T10:54:01;97623.41;;;20.71;38.20
21944;BME280;11136;48.778;9.126;2024-03-22T10:56:28;97628.19;;;20.84;37.54
21944;BME280;11136;48.778;9.126;2024-03-22T10:58:54;97719.31;;;21.52;37.43
21944;BME280;11136;48.778;9.126;2024-03-22T11:01:25;97702.34;;;21.56;37.35
21944;BME280;11136;48.778;9.126;2024-03-22T11:04:02;97517.03;;;20.51;36.89
21944;BME280;11136;48.778;9.126;2024-03-22T11:06:30;97504.84;;;20.75;36.75
21944;BME280;11136;48.778;9.126;2024-03-22T11:08:59;97677.22;;;22.12;36.50
21944;BME280;11136;48.778;9.126;2024-03-22T11:11:28;97637.44;;;21.61;35.61
21944;BME280;11136;48.778;9.126;2024-03-22T11:13:53;97509.25;;;20.91;34.39
21944;BME280;11136;48.778;9.126;2024-03-22T11:16:19;97454.75;;;20.31;34.93
21944;BME280;11136;48.778;9.126;2024-03-22T11:18:44;97502.69;;;20.55;35.26
21944;BME280;11136;48.778;9.126;2024-03-22T11:21:11;97546.72;;;20.98;35.11
21944;BME280;11136;48.778;9.126;2024-03-22T11:23:38;97509.09;;;21.01;34.97
21944;BME280;11136;48.778;9.126;2024-03-22T11:26:03;97584.09;;;21.56;34.51
21944;BME280;11136;48.778;9.126;2024-03-22T11:28:30;97532.41;;;21.35;34.15
21944;BME280;11136;48.778;9.126;2024-03-22T11:30:56;97541.56;;;21.31;33.02
21944;BME280;11136;48.778;9.126;2024-03-22T11:33:21;97646.53;;;22.06;32.94
21944;BME280;11136;48.778;9.126;2024-03-22T11:35:47;97503.06;;;21.00;32.98
21944;BME280;11136;48.778;9.126;2024-03-22T11:38:13;97336.91;;;20.29;33.25
21944;BME280;11136;48.778;9.126;2024-03-22T11:40:38;97596.88;;;22.14;33.03
21944;BME280;11136;48.778;9.126;2024-03-22T11:43:04;97465.84;;;21.55;33.30
21944;BME280;11136;48.778;9.126;2024-03-22T11:45:31;97429.97;;;21.49;33.28
21944;BME280;11136;48.778;9.126;2024-03-22T11:48:01;97482.34;;;21.95;32.28
21944;BME280;11136;48.778;9.126;2024-03-22T11:50:27;97458.28;;;21.77;32.21
21944;BME280;11136;48.778;9.126;2024-03-22T11:52:53;97302.66;;;20.89;31.93
21944;BME280;11136;48.778;9.126;2024-03-22T11:55:18;97518.19;;;22.17;31.10
21944;BME280;11136;48.778;9.126;2024-03-22T11:57:48;97545.28;;;22.16;31.19
21944;BME280;11136;48.778;9.126;2024-03-22T12:00:14;97469.41;;;21.62;31.07
21944;BME280;11136;48.778;9.126;2024-03-22T12:02:40;97317.03;;;20.85;31.02
21944;BME280;11136;48.778;9.126;2024-03-22T12:05:07;97651.56;;;22.71;31.70
21944;BME280;11136;48.778;9.126;2024-03-22T12:07:32;97530.81;;;22.37;31.37
21944;BME280;11136;48.778;9.126;2024-03-22T12:09:58;97384.22;;;21.30;30.60
21944;BME280;11136;48.778;9.126;2024-03-22T12:12:24;97565.88;;;22.11;31.40
21944;BME280;11136;48.778;9.126;2024-03-22T12:14:50;97402.66;;;21.04;31.47
21944;BME280;11136;48.778;9.126;2024-03-22T12:17:16;97363.25;;;20.99;31.44
21944;BME280;11136;48.778;9.126;2024-03-22T12:19:41;96953.38;;;17.86;31.50
21944;BME280;11136;48.778;9.126;2024-03-22T12:22:07;97325.19;;;20.74;31.87
21944;BME280;11136;48.778;9.126;2024-03-22T12:24:32;97501.34;;;21.81;31.73
21944;BME280;11136;48.778;9.126;2024-03-22T12:26:57;97291.31;;;20.33;31.18
21944;BME280;11136;48.778;9.126;2024-03-22T12:29:23;97541.59;;;21.86;31.65
21944;BME280;11136;48.778;9.126;2024-03-22T12:31:49;97318.41;;;20.40;32.08
21944;BME280;11136;48.778;9.126;2024-03-22T12:34:15;97369.63;;;20.32;31.97
21944;BME280;11136;48.778;9.126;2024-03-22T12:36:40;97282.53;;;19.85;32.62
21944;BME280;11136;48.778;9.126;2024-03-22T12:39:06;97380.56;;;20.76;32.78
21944;BME280;11136;48.778;9.126;2024-03-22T12:41:32;97462.25;;;21.48;32.74
21944;BME280;11136;48.778;9.126;2024-03-22T12:43:58;97429.69;;;21.36;32.62
21944;BME280;11136;48.778;9.126;2024-03-22T12:46:24;97358.41;;;20.72;32.70
21944;BME280;11136;48.778;9.126;2024-03-22T12:48:50;97416.03;;;21.73;31.88
21944;BME280;11136;48.778;9.126;2024-03-22T12:51:15;97438.47;;;21.90;31.63
21944;BME280;11136;48.778;9.126;2024-03-22T12:53:41;96956.50;;;18.89;31.95
21944;BME280;11136;48.778;9.126;2024-03-22T12:56:06;97293.06;;;20.90;32.26